Albert, New Mexico
Current Conditions -  °F | °C
As of 3:53 PM on Thursday 18 Dec 2014 (Local Time) from KTCC Reporting Station
Scattered Clouds Scattered Clouds  
Wind Chill: 41°   Ceiling: Unl
Heat Index: 45°   Visibility: 10mi
Dew Point: 31°   Wind: 7mph
Humidity: 58%   Direction: 60°ENE
Pressure: 30.03"   Gusts: NA
Location:  35.7181°N, 103.591°W
Report Text: KTCC 182253Z AUTO 06006KT 10SM SCT120 07/M01 A3003 RMK AO2 SLP173 T00721006
Loading
Personal Weather Stations






























Interactive Weather Map New forecast layout! Learn more

10-Day Weather Forecast

Advertisements
Track Severe Weather on mobile